Latest Weather Observations for Croker Island Airport

IDD60801

Issued at 7:31 am CST Sunday 2 August 2015 (issued every 30 minutes, with the page automatically refreshed every 10 minutes)

About weather observations | Map of weather stations | Latest weather observations for NT | Other Formats
Station Details ID: 014308 Name: CROKER ISLAND AIRPORT Lat: -11.16 Lon: 132.48 Height: 9.2 m
Data from the previous 72 hours. | See also: Recent months for locations in Northern Territory
Date/Time
CST
Temp
°C
App
Temp
°C
Dew
Point
Rel
Hum
%
Delta-T
°C
Wind Press
QNH
hPa
Press
MSL
hPa
Rain
since 9 am
mm
Dir
 
Spd
km/h
Gust
km/h
Spd
kts
Gust
kts
02/07:30am 22.9 24.6 20.1 84 1.8 ESE 11 17 6 9 1016.1 1016.0 0.0
02/07:00am 22.4 24.1 19.4 83 1.9 ESE 9 15 5 8 1015.6 1015.5 0.0
02/06:30am 23.1 24.7 19.9 82 2.1 ESE 11 15 6 8 1015.2 1015.1 0.0
02/06:00am 23.2 24.3 19.6 80 2.3 E 13 19 7 10 1014.9 1014.8 0.0
02/05:30am 23.3 24.2 19.2 78 2.6 E 13 20 7 11 1014.6 1014.5 0.0
02/05:00am 23.5 24.8 19.4 78 2.6 E 11 17 6 9 1014.4 1014.3 0.0
02/04:30am 24.0 23.8 19.3 75 3.0 ENE 19 26 10 14 1014.2 1014.1 0.0
02/04:00am 23.9 25.0 19.6 77 2.8 E 13 19 7 10 1014.1 1014.0 0.0
02/03:30am 24.1 25.6 19.8 77 2.8 E 11 20 6 11 1014.3 1014.2 0.0
02/03:00am 23.9 25.4 19.8 78 2.6 ENE 11 20 6 11 1014.4 1014.3 0.0
02/02:30am 23.4 25.3 19.8 80 2.3 ENE 9 13 5 7 1014.2 1014.1 0.0
02/02:00am 23.4 25.4 20.0 81 2.2 ENE 9 15 5 8 1014.3 1014.2 0.0
02/01:30am 22.8 25.2 20.0 84 1.8 ENE 7 9 4 5 1014.5 1014.4 0.0
02/01:00am 22.6 24.9 19.9 85 1.7 ENE 7 9 4 5 1014.5 1014.4 0.0
02/12:30am 22.4 24.7 19.9 86 1.6 ENE 7 9 4 5 1014.7 1014.6 0.0
02/12:00am 22.6 24.9 19.9 85 1.7 ENE 7 9 4 5 1014.8 1014.7 0.0
 
Date/Time
CST
Temp
°C
App
Temp
°C
Dew
Point
Rel
Hum
%
Delta-T
°C
Wind Press
QNH
hPa
Press
MSL
hPa
Rain
since 9 am
mm
Dir
 
Spd
km/h
Gust
km/h
Spd
kts
Gust
kts
01/11:30pm 22.6 24.3 20.1 86 1.6 ENE 11 13 6 7 1014.7 1014.6 0.0
01/11:00pm 21.8 24.2 19.7 88 1.3 ENE 6 7 3 4 1014.7 1014.6 0.0
01/10:30pm 20.8 23.1 18.6 87 1.4 ENE 4 4 2 2 1014.7 1014.6 0.0
01/10:00pm 21.0 23.4 18.0 83 1.9 NE 2 2 1 1 1014.7 1014.6 0.0
01/09:30pm 22.0 24.4 19.7 87 1.5 ENE 6 6 3 3 1014.5 1014.4 0.0
01/09:00pm 22.3 25.2 19.8 86 1.6 ENE 4 6 2 3 1014.0 1013.9 0.0
01/08:30pm 23.1 25.7 20.4 85 1.7 NE 7 11 4 6 1013.6 1013.5 0.0
01/08:00pm 23.4 26.0 20.5 84 1.9 ENE 7 11 4 6 1013.7 1013.6 0.0
01/07:30pm 23.9 25.7 20.4 81 2.3 ENE 11 15 6 8 1013.4 1013.3 0.0
01/07:00pm 24.4 25.2 19.9 76 2.9 E 15 22 8 12 1013.1 1013.0 0.0
01/06:30pm 24.9 25.2 19.5 72 3.5 E 17 26 9 14 1013.0 1012.9 0.0
01/06:00pm 25.8 25.3 19.0 66 4.4 E 20 30 11 16 1013.0 1012.9 0.0
01/05:30pm 26.4 25.8 18.8 63 4.9 E 20 30 11 16 1012.9 1012.8 0.0
01/05:00pm 27.2 26.6 18.5 59 5.6 E 19 26 10 14 1012.7 1012.6 0.0
01/04:30pm 27.5 26.2 18.2 57 5.9 ENE 22 32 12 17 1012.6 1012.5 0.0
01/04:00pm 27.9 27.6 19.1 58 5.7 E 19 28 10 15 1012.7 1012.6 0.0
01/03:30pm 28.5 28.1 18.0 53 6.7 ESE 17 26 9 14 1012.7 1012.6 0.0
01/03:00pm 28.8 29.0 18.6 54 6.6 E 15 24 8 13 1013.0 1012.9 0.0
01/02:30pm 28.8 27.8 18.0 52 6.9 ENE 20 28 11 15 1013.4 1013.3 0.0
01/02:00pm 28.6 27.5 17.2 50 7.2 ENE 19 30 10 16 1013.7 1013.6 0.0
01/01:30pm 28.3 27.3 17.5 52 6.8 E 19 30 10 16 1014.0 1013.9 0.0
01/01:00pm 28.4 28.9 19.3 57 5.9 ESE 15 24 8 13 1014.4 1014.3 0.0
01/12:30pm 28.9 28.5 18.9 54 6.5 ESE 19 28 10 15 1014.7 1014.6 0.0
01/12:00pm 28.5 27.4 18.6 55 6.4 ENE 22 32 12 17 1015.1 1015.0 0.0
01/11:30am 28.6 28.3 19.2 56 6.1 E 19 28 10 15 1015.4 1015.3 0.0
01/11:00am 28.0 27.4 18.4 56 6.1 E 19 28 10 15 1015.7 1015.6 0.0
01/10:30am 27.8 27.4 18.8 58 5.8 E 19 28 10 15 1015.8 1015.7 0.0
01/10:00am 27.2 27.0 19.3 62 5.1 ESE 19 26 10 14 1016.0 1015.9 0.0
01/09:30am 26.8 26.6 19.7 65 4.6 E 20 32 11 17 1015.8 1015.7 0.0
01/09:00am 26.1 25.8 19.5 67 4.3 E 20 28 11 15 1015.7 1015.6 0.0
01/08:30am 25.2 25.9 20.5 75 3.1 E 17 28 9 15 1015.3 1015.2 0.0
01/08:00am 24.0 26.4 20.9 83 2.0 E 9 15 5 8 1015.1 1015.0 0.0
01/07:30am 22.4 24.8 20.1 87 1.5 E 7 11 4 6 1014.8 1014.7 0.0
01/07:00am 22.3 24.3 20.0 87 1.5 E 9 13 5 7 1014.4 1014.3 0.0
01/06:30am 22.5 24.5 20.0 86 1.6 E 9 15 5 8 1014.2 1014.1 0.0
01/06:00am 22.8 24.0 20.0 84 1.8 E 13 17 7 9 1013.9 1013.8 0.0
01/05:30am 23.1 25.2 20.1 83 1.9 E 9 17 5 9 1013.8 1013.7 0.0
01/05:00am 23.6 24.9 20.1 81 2.3 E 13 20 7 11 1013.8 1013.7 0.0
01/04:30am 24.1 24.7 20.2 79 2.5 E 17 26 9 14 1013.6 1013.5 0.0
01/04:00am 24.4 25.1 20.5 79 2.5 E 17 28 9 15 1013.6 1013.5 0.0
01/03:30am 24.5 24.7 20.2 77 2.8 E 19 28 10 15 1013.6 1013.5 0.0
01/03:00am 24.4 24.7 20.3 78 2.7 E 19 28 10 15 1013.7 1013.6 0.0
01/02:30am 24.5 25.9 21.0 81 2.3 E 15 20 8 11 1013.8 1013.7 0.0
01/02:00am 24.3 25.2 20.8 81 2.3 E 17 28 9 15 1013.7 1013.6 0.0
01/01:30am 24.3 25.6 20.8 81 2.3 ENE 15 22 8 12 1013.9 1013.8 0.0
01/01:00am 24.5 25.5 21.0 81 2.3 ENE 17 24 9 13 1014.1 1014.0 0.0
01/12:30am 24.4 26.3 21.3 83 2.0 E 13 22 7 12 1014.4 1014.3 0.0
01/12:00am 24.0 26.7 21.3 85 1.8 ENE 9 13 5 7 1014.4 1014.3 0.0
 
Date/Time
CST
Temp
°C
App
Temp
°C
Dew
Point
Rel
Hum
%
Delta-T
°C
Wind Press
QNH
hPa
Press
MSL
hPa
Rain
since 9 am
mm
Dir
 
Spd
km/h
Gust
km/h
Spd
kts
Gust
kts
31/11:30pm 24.1 26.8 21.4 85 1.8 ENE 9 13 5 7 1014.3 1014.2 0.0
31/11:00pm 24.0 26.9 21.1 84 1.9 ENE 7 9 4 5 1014.2 1014.1 0.0
31/10:30pm 24.1 27.0 20.6 81 2.3 E 6 6 3 3 1013.9 1013.8 0.0
31/10:00pm 24.5 27.4 20.6 79 2.5 ENE 6 9 3 5 1014.0 1013.9 0.0
31/09:30pm 24.4 27.0 20.5 79 2.5 ENE 7 11 4 6 1013.7 1013.6 0.0
31/09:00pm 23.9 26.5 20.4 81 2.3 ENE 7 11 4 6 1013.5 1013.4 0.0
31/08:30pm 23.7 26.2 20.2 81 2.3 ENE 7 9 4 5 1013.3 1013.2 0.0
31/08:00pm 24.0 26.3 19.9 78 2.6 ENE 7 11 4 6 1012.9 1012.8 0.0
31/07:30pm 24.5 26.9 20.0 76 2.9 ENE 7 13 4 7 1012.6 1012.5 0.0
31/07:00pm 24.9 26.5 19.9 74 3.2 ENE 11 15 6 8 1012.3 1012.2 0.0
31/06:30pm 25.6 26.9 20.2 72 3.5 ENE 13 22 7 12 1012.2 1012.1 0.0
31/06:00pm 26.2 26.2 20.1 69 4.0 E 20 28 11 15 1012.1 1012.0 0.0
31/05:30pm 27.1 26.5 19.7 64 4.8 E 22 35 12 19 1011.8 1011.7 0.0
31/05:00pm 26.8 25.4 19.7 65 4.6 E 26 37 14 20 1011.8 1011.7 0.0
31/04:30pm 27.6 25.6 19.1 59 5.5 E 28 39 15 21 1011.5 1011.4 0.0
31/04:00pm 27.9 26.8 20.2 63 5.0 E 26 39 14 21 1011.7 1011.6 0.0
31/03:30pm 27.7 25.9 20.3 64 4.9 E 30 44 16 24 1011.8 1011.7 0.0
31/03:00pm 27.8 25.3 19.8 61 5.2 E 32 43 17 23 1012.1 1012.0 0.0
31/02:30pm 28.3 26.4 20.1 61 5.4 E 30 43 16 23 1012.5 1012.4 0.0
31/02:00pm 28.4 26.7 19.9 60 5.6 E 28 37 15 20 1013.0 1012.9 0.0
31/01:30pm 28.9 27.6 20.6 61 5.5 E 28 39 15 21 1013.5 1013.4 0.0
31/01:02pm 28.7 27.0 19.9 59 5.8 E 28 46 15 25 1013.9 1013.8 0.0
31/01:00pm 29.6 28.6 20.5 58 6.0 E 26 39 14 21 1014.0 1013.9 0.0
31/12:30pm 29.0 29.4 20.7 61 5.5 E 19 32 10 17 1014.5 1014.4 0.0
31/12:00pm 28.4 28.3 20.7 63 5.1 E 22 33 12 18 1014.9 1014.8 0.0
31/11:30am 28.3 28.3 20.1 61 5.4 E 20 35 11 19 1015.0 1014.9 0.0
31/11:00am 26.6 26.5 20.0 67 4.3 ESE 20 28 11 15 1015.3 1015.2 0.0
31/10:30am 27.4 26.3 20.2 65 4.7 E 26 35 14 19 1015.6 1015.5 0.0
31/10:00am 26.0 26.6 20.3 71 3.7 E 17 26 9 14 1015.9 1015.8 0.0
31/09:30am 25.7 26.0 20.3 72 3.5 ESE 19 26 10 14 1016.0 1015.9 0.0
31/09:00am 25.6 25.9 20.4 73 3.4 E 19 28 10 15 1016.0 1015.9 0.0
31/08:30am 25.4 26.6 20.6 75 3.1 ESE 15 24 8 13 1015.7 1015.6 0.0
31/08:00am 24.3 26.2 20.6 80 2.4 E 11 17 6 9 1015.6 1015.5 0.0
31/07:30am 22.9 24.6 20.1 84 1.8 E 11 20 6 11 1015.5 1015.4 0.0
31/07:00am 22.5 24.1 19.9 85 1.7 E 11 17 6 9 1015.2 1015.1 0.0
31/06:30am 22.7 23.9 19.9 84 1.8 E 13 20 7 11 1015.0 1014.9 0.0
31/06:00am 22.4 24.2 19.6 84 1.8 E 9 13 5 7 1015.0 1014.9 0.0
31/05:30am 22.7 24.1 19.5 82 2.0 E 11 17 6 9 1014.8 1014.7 0.0
31/05:00am 23.1 24.1 19.5 80 2.3 E 13 20 7 11 1014.7 1014.6 0.0
31/04:30am 23.2 24.1 19.2 78 2.5 ESE 13 20 7 11 1014.7 1014.6 0.0
31/04:00am 23.3 23.6 18.8 76 2.8 ESE 15 20 8 11 1014.9 1014.8 0.0
31/03:30am 23.5 23.6 18.4 73 3.2 E 15 24 8 13 1015.1 1015.0 0.0
31/03:00am 23.7 24.6 18.4 72 3.3 ESE 11 19 6 10 1015.1 1015.0 0.0
31/02:30am 24.3 24.0 18.2 68 3.8 ESE 17 28 9 15 1015.2 1015.1 0.0
31/02:00am 24.4 25.0 20.3 78 2.7 ESE 17 28 9 15 1015.4 1015.3 0.0
31/01:30am 24.5 25.6 21.2 82 2.2 ESE 17 24 9 13 1015.6 1015.5 0.0
31/01:00am 24.5 25.7 21.4 83 2.0 E 17 26 9 14 1015.7 1015.6 0.0
31/12:30am 24.6 25.3 21.5 83 2.0 E 20 30 11 16 1015.6 1015.5 0.0
31/12:00am 24.5 25.2 21.2 82 2.2 E 19 26 10 14 1015.5 1015.4 0.0
 
Date/Time
CST
Temp
°C
App
Temp
°C
Dew
Point
Rel
Hum
%
Delta-T
°C
Wind Press
QNH
hPa
Press
MSL
hPa
Rain
since 9 am
mm
Dir
 
Spd
km/h
Gust
km/h
Spd
kts
Gust
kts
30/11:30pm 24.5 25.3 21.4 83 2.0 E 19 24 10 13 1015.4 1015.3 0.0
30/11:00pm 24.3 25.9 21.4 84 1.9 E 15 20 8 11 1015.5 1015.4 0.0
30/10:30pm 24.1 26.8 21.4 85 1.8 E 9 15 5 8 1015.4 1015.3 0.0
30/10:00pm 24.1 26.8 21.4 85 1.8 E 9 13 5 7 1015.3 1015.2 0.0
30/09:30pm 23.7 26.6 21.0 85 1.8 E 7 9 4 5 1015.1 1015.0 0.0
30/09:00pm 24.1 26.4 20.6 81 2.3 E 9 13 5 7 1014.9 1014.8 0.0
30/08:30pm 24.3 26.8 21.0 82 2.2 E 9 13 5 7 1014.6 1014.5 0.0
30/08:00pm 24.5 26.4 20.6 79 2.5 ENE 11 17 6 9 1014.3 1014.2 0.0
30/07:30pm 24.6 26.0 20.3 77 2.8 ENE 13 17 7 9 1013.9 1013.8 0.0
30/07:00pm 24.9 25.9 20.2 75 3.1 ENE 15 20 8 11 1013.5 1013.4 0.0
30/06:30pm 25.5 26.0 20.1 72 3.5 ENE 17 24 9 13 1013.3 1013.2 0.0
30/06:00pm 26.4 27.2 19.8 67 4.3 ENE 15 24 8 13 1013.1 1013.0 0.0
30/05:30pm 27.2 27.1 19.5 62 5.0 ENE 19 28 10 15 1013.0 1012.9 0.0
30/05:00pm 27.7 27.6 20.0 63 5.0 E 20 33 11 18 1012.9 1012.8 0.0
30/04:30pm 27.9 27.2 19.4 60 5.5 E 22 30 12 16 1013.0 1012.9 0.0
30/04:00pm 28.2 26.6 19.2 58 5.8 E 26 37 14 20 1012.9 1012.8 0.0
30/03:30pm 28.7 26.7 19.1 56 6.2 ENE 28 41 15 22 1013.0 1012.9 0.0
30/03:00pm 28.5 27.1 19.7 59 5.7 E 26 41 14 22 1013.4 1013.3 0.0
30/02:56pm 28.1 26.3 19.6 60 5.5 E 28 46 15 25 1013.4 1013.3 0.0
30/02:30pm 28.5 26.6 19.4 57 5.9 E 28 41 15 22 1013.9 1013.8 0.0
30/02:00pm 28.3 27.0 19.8 60 5.5 E 26 33 14 18 1014.5 1014.4 0.0
30/01:30pm 27.6 25.9 19.9 63 5.0 E 28 39 15 21 1015.0 1014.9 0.0
30/01:00pm 27.4 25.9 19.5 62 5.1 ESE 26 39 14 21 1015.5 1015.4 0.0
30/12:30pm 27.5 25.6 19.3 61 5.3 E 28 39 15 21 1015.8 1015.7 0.0
30/12:00pm 27.3 26.5 20.1 64 4.7 ESE 24 33 13 18 1016.2 1016.1 0.0
30/11:30am 26.8 25.9 19.9 66 4.5 E 24 37 13 20 1016.8 1016.7 0.0
30/11:00am 26.8 26.2 19.7 65 4.6 ESE 22 33 12 18 1016.8 1016.7 0.0
30/10:30am 26.4 25.7 20.3 69 4.0 E 24 37 13 20 1016.8 1016.7 0.0
30/10:00am 26.4 25.5 19.8 67 4.3 E 24 35 13 19 1016.6 1016.5 0.0
30/09:30am 25.8 24.1 19.7 69 3.9 E 28 37 15 20 1016.4 1016.3 0.0
30/09:00am 25.5 24.8 19.6 70 3.8 E 22 32 12 17 1016.3 1016.2 0.0
30/08:30am 24.7 25.1 19.8 74 3.2 E 17 24 9 13 1016.3 1016.2 0.0
30/08:00am 23.3 25.5 19.5 79 2.4 ESE 7 13 4 7 1016.2 1016.1 0.0

Other Formats:

Comma delimited format used in spreadsheet applications
http://www.bom.gov.au/fwo/IDD60801/IDD60801.94108.axf

JavaScript Object Notation format (JSON) in row-major order
http://www.bom.gov.au/fwo/IDD60801/IDD60801.94108.json